Latest Weather Observations for Lajamanu

IDD60801

Issued at 8:31 pm CST Monday 20 February 2017 (issued every 30 minutes, with the page automatically refreshed every 10 minutes)

About weather observations | Map of weather stations | Latest weather observations for NT | Other Formats
Station Details ID: 014829 Name: LAJAMANU AIRPORT Lat: -18.33 Lon: 130.64 Height: 315.6 m
Data from the previous 72 hours. | See also: Recent months at Lajamanu
Date/Time
CST
Temp
°C
App
Temp
°C
Dew
Point
°C
Rel
Hum
%
Delta-T
°C
Wind Press
QNH
hPa
Press
MSL
hPa
Rain since
9am
mm
Dir  Spd
km/h
Gust
km/h
Spd
kts
Gust
kts
20/08:30pm 23.7 23.6 13.3 52 6.1 S 6 6 3 3 1010.9 1008.4 0.0
20/08:00pm 25.0 24.1 11.2 42 7.9 SE 7 9 4 5 1010.6 1008.1 0.0
20/07:30pm 28.0 26.3 9.8 32 10.3 SE 9 11 5 6 1010.2 1007.7 0.0
20/07:00pm 30.6 28.3 8.9 26 12.3 SE 11 13 6 7 1009.8 1007.3 0.0
20/06:30pm 32.3 29.0 7.9 22 13.7 SE 15 19 8 10 1009.3 1006.9 0.0
20/06:00pm 33.0 29.8 8.5 22 13.9 SE 15 20 8 11 1008.9 1006.5 0.0
20/05:30pm 33.4 30.3 7.4 20 14.6 SE 13 24 7 13 1008.7 1006.3 0.0
20/05:00pm 33.6 31.3 9.0 22 14.1 ESE 11 17 6 9 1008.6 1006.2 0.0
20/04:30pm 33.4 29.7 8.1 21 14.3 SE 17 24 9 13 1008.8 1006.4 0.0
20/04:00pm 33.5 31.0 6.7 19 14.8 SSE 9 19 5 10 1008.9 1006.5 0.0
20/03:30pm 33.2 30.5 7.2 20 14.5 SSE 11 17 6 9 1009.3 1006.9 0.0
20/03:00pm 33.0 30.1 6.3 19 14.7 SE 11 20 6 11 1009.5 1007.0 0.0
20/02:30pm 32.8 29.8 7.6 21 14.1 SE 13 26 7 14 1010.0 1007.5 0.0
20/02:00pm 32.8 29.8 7.6 21 14.1 SE 13 20 7 11 1010.5 1008.0 0.0
20/01:30pm 32.2 29.2 7.8 22 13.7 ESE 13 22 7 12 1011.1 1008.6 0.0
20/01:00pm 32.0 29.0 7.6 22 13.6 ESE 13 22 7 12 1011.7 1009.3 0.0
20/12:30pm 31.7 27.9 7.4 22 13.5 ESE 17 24 9 13 1012.0 1009.6 0.0
20/12:00pm 30.6 27.1 7.1 23 12.9 ESE 15 22 8 12 1012.2 1009.8 0.0
20/11:30am 30.3 25.9 7.5 24 12.6 ESE 20 28 11 15 1012.6 1010.2 0.0
20/11:00am 29.5 25.3 7.4 25 12.1 E 19 26 10 14 1012.9 1010.4 0.0
20/10:30am 28.9 24.7 7.5 26 11.7 E 19 26 10 14 1013.1 1010.6 0.0
20/10:00am 28.1 24.1 8.9 30 10.7 ESE 20 30 11 16 1013.3 1010.8 0.0
20/09:30am 26.8 21.7 7.8 30 10.3 E 24 32 13 17 1013.2 1010.7 0.0
20/09:00am 25.7 22.1 9.9 37 8.9 ESE 19 28 10 15 1012.9 1010.4 0.0
20/08:30am 24.9 23.0 13.1 48 7.0 ESE 15 20 8 11 1012.8 1010.3 0.0
20/08:00am 23.1 22.6 14.9 60 4.9 SE 11 15 6 8 1012.4 1010.0 0.0
20/07:30am 21.4 21.5 15.5 69 3.6 SE 9 11 5 6 1011.9 1009.5 0.0
20/07:00am 20.3 20.7 16.3 78 2.4 SE 9 13 5 7 1011.4 1009.0 0.0
20/06:30am 19.7 20.6 16.7 83 1.8 SE 7 9 4 5 1011.0 1008.5 0.0
20/06:00am 19.9 21.2 17.1 84 1.7 SSE 6 9 3 5 1010.7 1008.2 0.0
20/05:30am 19.7 22.2 17.3 86 1.5 CALM 0 0 0 0 1010.4 1007.9 0.0
20/05:00am 19.8 22.0 17.4 86 1.5 SSE 2 6 1 3 1010.1 1007.6 0.0
20/04:30am 19.8 22.3 17.2 85 1.6 CALM 0 0 0 0 1009.8 1007.3 0.0
20/04:00am 20.1 22.5 16.9 82 2.0 CALM 0 0 0 0 1009.8 1007.3 0.0
20/03:30am 20.4 22.7 16.8 80 2.2 CALM 0 0 0 0 1009.9 1007.4 0.0
20/03:00am 21.8 23.0 17.4 76 2.7 ENE 7 9 4 5 1010.2 1007.7 0.0
20/02:30am 22.5 22.9 16.3 68 3.8 ENE 9 9 5 5 1010.1 1007.6 0.0
20/02:00am 23.2 23.3 16.5 66 4.1 ENE 11 11 6 6 1010.2 1007.7 0.0
20/01:30am 23.1 23.2 16.6 67 4.0 ENE 11 13 6 7 1010.6 1008.1 0.0
20/01:00am 23.3 23.8 16.6 66 4.2 ENE 9 11 5 6 1010.7 1008.2 0.0
20/12:30am 23.8 24.4 16.8 65 4.4 ENE 9 11 5 6 1011.0 1008.5 0.0
20/12:00am 24.0 24.8 16.3 62 4.8 ENE 7 9 4 5 1011.1 1008.6 0.0
 
Date/Time
CST
Temp
°C
App
Temp
°C
Dew
Point
°C
Rel
Hum
%
Delta-T
°C
Wind Press
QNH
hPa
Press
MSL
hPa
Rain since
9am
mm
Dir  Spd
km/h
Gust
km/h
Spd
kts
Gust
kts
19/11:30pm 25.5 25.2 15.5 54 6.1 E 11 13 6 7 1011.2 1008.7 0.0
19/11:00pm 24.6 25.5 16.6 61 5.0 ESE 7 11 4 6 1011.2 1008.7 0.0
19/10:30pm 25.1 25.6 16.5 59 5.4 ESE 9 11 5 6 1011.0 1008.5 0.0
19/10:00pm 24.5 25.6 17.0 63 4.7 SE 7 9 4 5 1010.6 1008.1 0.0
19/09:30pm 24.8 25.7 16.5 60 5.2 ESE 7 7 4 4 1010.3 1007.8 0.0
19/09:00pm 25.5 26.1 15.8 55 6.0 ESE 7 9 4 5 1010.1 1007.6 0.0
19/08:30pm 26.8 27.2 15.2 49 7.1 E 7 9 4 5 1009.7 1007.2 0.0
19/08:00pm 28.0 27.9 15.0 45 8.0 E 9 11 5 6 1009.2 1006.8 0.0
19/07:30pm 29.1 28.9 13.7 38 9.3 ESE 7 9 4 5 1008.9 1006.5 0.0
19/07:00pm 31.6 31.0 13.4 33 11.1 ESE 9 15 5 8 1008.6 1006.2 0.0
19/06:30pm 33.3 32.1 12.9 29 12.4 ESE 11 15 6 8 1008.1 1005.6 0.0
19/06:00pm 34.0 31.9 13.5 29 12.6 SE 17 22 9 12 1007.9 1005.4 0.0
19/05:30pm 34.3 32.1 12.0 25 13.4 SE 15 20 8 11 1007.7 1005.2 0.0
19/05:00pm 34.4 32.0 12.7 27 13.2 SSE 17 26 9 14 1007.7 1005.2 0.0
19/04:30pm 34.8 32.3 13.6 28 13.1 SE 19 26 10 14 1007.8 1005.3 0.0
19/04:00pm 34.8 32.9 14.1 28 12.9 SSE 17 22 9 12 1007.8 1005.3 0.0
19/03:30pm 34.4 32.0 12.7 27 13.2 SE 17 26 9 14 1007.9 1005.4 0.0
19/03:00pm 34.7 33.3 14.6 30 12.6 ESE 15 20 8 11 1008.3 1005.8 0.0
19/02:30pm 34.4 32.7 14.8 30 12.3 ESE 17 26 9 14 1008.7 1006.3 0.0
19/02:00pm 34.1 32.5 15.1 32 12.0 ESE 17 30 9 16 1009.2 1006.8 0.0
19/01:30pm 33.5 31.3 15.0 32 11.6 ESE 20 28 11 15 1009.7 1007.2 0.0
19/01:00pm 33.5 31.7 15.5 34 11.4 ESE 19 28 10 15 1010.1 1007.6 0.0
19/12:30pm 32.6 31.1 16.8 38 10.1 ESE 20 30 11 16 1010.5 1008.0 0.0
19/12:00pm 32.2 31.6 18.8 45 8.8 ESE 20 35 11 19 1010.9 1008.4 0.0
19/11:30am 31.5 30.1 18.8 46 8.4 ESE 24 37 13 20 1011.1 1008.6 0.0
19/11:00am 31.3 30.8 19.9 50 7.6 ESE 22 35 12 19 1011.5 1009.1 0.0
19/10:30am 30.3 28.7 20.0 54 6.9 SE 28 39 15 21 1011.6 1009.2 0.0
19/10:00am 30.0 29.7 20.3 56 6.5 ESE 22 32 12 17 1011.6 1009.2 0.0
19/09:30am 28.8 29.0 20.5 61 5.5 ESE 20 28 11 15 1011.8 1009.4 0.0
19/09:00am 28.2 28.5 20.7 63 5.0 ESE 20 28 11 15 1011.9 1009.5 0.0
19/08:30am 27.4 28.6 21.4 70 4.0 ESE 17 22 9 12 1011.9 1009.5 0.0
19/08:00am 26.6 29.5 22.4 78 2.9 SE 11 13 6 7 1011.5 1009.1 0.0
19/07:30am 25.1 28.3 22.4 85 1.8 SE 9 11 5 6 1011.3 1008.9 0.0
19/07:00am 23.9 27.0 21.4 86 1.7 ESE 7 9 4 5 1010.7 1008.2 0.0
19/06:30am 23.9 26.8 21.0 84 1.9 E 7 9 4 5 1010.3 1007.8 0.0
19/06:00am 24.3 26.8 21.0 82 2.2 ENE 9 9 5 5 1009.7 1007.2 0.0
19/05:30am 24.7 27.6 21.0 80 2.5 NNE 7 11 4 6 1009.5 1007.0 0.0
19/05:00am 24.9 27.5 21.2 80 2.5 N 9 11 5 6 1009.2 1006.8 0.0
19/04:30am 25.1 28.1 21.2 79 2.6 NNE 7 9 4 5 1009.1 1006.7 0.0
19/04:00am 25.4 28.1 21.3 78 2.7 NNE 9 11 5 6 1009.2 1006.8 0.0
19/03:30am 25.9 28.6 21.3 76 3.1 N 9 11 5 6 1009.3 1006.9 0.0
19/03:00am 26.2 29.1 21.0 73 3.5 NNE 7 9 4 5 1009.5 1007.0 0.0
19/02:30am 26.9 29.2 20.7 69 4.1 NNE 9 11 5 6 1009.5 1007.0 0.0
19/02:00am 27.6 29.3 20.2 64 4.9 NE 11 15 6 8 1009.6 1007.1 0.0
19/01:30am 27.8 30.6 22.3 72 3.8 NNE 11 15 6 8 1009.6 1007.1 0.0
19/01:00am 27.9 30.9 21.9 70 4.1 E 9 13 5 7 1009.2 1006.8 0.0
19/12:30am 28.2 33.1 23.1 74 3.5 SSE 2 7 1 4 1009.3 1006.9 0.0
19/12:00am 28.9 32.9 23.8 74 3.6 ESE 9 13 5 7 1009.8 1007.3 0.0
 
Date/Time
CST
Temp
°C
App
Temp
°C
Dew
Point
°C
Rel
Hum
%
Delta-T
°C
Wind Press
QNH
hPa
Press
MSL
hPa
Rain since
9am
mm
Dir  Spd
km/h
Gust
km/h
Spd
kts
Gust
kts
18/11:30pm 28.2 34.0 24.0 78 2.9 CALM 0 0 0 0 1009.5 1007.0 0.0
18/11:00pm 28.0 33.5 23.4 76 3.2 CALM 0 0 0 0 1009.3 1006.9 0.0
18/10:30pm 28.4 33.8 23.3 74 3.5 CALM 0 0 0 0 1009.0 1006.6 0.0
18/10:00pm 29.0 34.9 24.1 75 3.4 CALM 0 0 0 0 1008.9 1006.5 0.0
18/09:30pm 29.1 32.8 22.3 66 4.7 E 6 7 3 4 1008.8 1006.4 0.0
18/09:00pm 30.0 33.8 22.4 63 5.2 E 6 7 3 4 1008.6 1006.2 0.0
18/08:30pm 30.8 34.0 22.4 61 5.8 E 9 9 5 5 1008.4 1006.0 0.0
18/08:00pm 31.3 34.3 22.0 57 6.4 E 9 11 5 6 1008.2 1005.7 0.0
18/07:30pm 32.0 34.4 20.9 52 7.5 E 9 9 5 5 1007.9 1005.4 0.0
18/07:00pm 33.7 36.1 20.8 46 8.8 ESE 9 11 5 6 1007.7 1005.2 0.0
18/06:30pm 35.0 36.9 19.8 41 10.2 ESE 9 11 5 6 1007.5 1005.0 0.0
18/06:00pm 35.5 36.5 19.4 38 10.8 SE 13 15 7 8 1007.3 1004.8 0.0
18/05:30pm 35.7 37.3 20.0 39 10.6 ESE 11 17 6 9 1007.1 1004.6 0.0
18/05:00pm 35.9 36.8 19.3 37 11.1 ESE 13 19 7 10 1007.3 1004.8 0.0
18/04:30pm 36.2 37.3 19.6 37 11.2 SE 13 19 7 10 1007.6 1005.1 0.0
18/04:00pm 36.0 37.2 20.7 41 10.4 ESE 15 20 8 11 1007.9 1005.4 0.0
18/03:30pm 36.3 38.0 20.9 40 10.6 ESE 13 22 7 12 1008.1 1005.6 0.0
18/03:00pm 36.1 37.9 21.9 43 9.8 ESE 15 20 8 11 1008.2 1005.7 0.0
18/02:30pm 35.3 36.5 20.0 40 10.3 SE 13 20 7 11 1008.6 1006.2 0.0
18/02:00pm 35.4 37.8 20.9 42 9.9 ESE 9 15 5 8 1008.9 1006.5 0.0
18/01:30pm 35.0 37.0 21.6 45 9.2 SE 13 20 7 11 1009.1 1006.7 0.0
18/01:00pm 34.3 36.6 20.7 45 9.2 S 9 20 5 11 1009.8 1007.3 0.0
18/12:30pm 33.8 36.2 20.9 46 8.8 SE 9 17 5 9 1010.6 1008.1 0.0
18/12:00pm 33.4 35.2 21.2 48 8.3 SSW 13 22 7 12 1010.9 1008.4 0.0
18/11:30am 32.6 33.6 21.8 53 7.4 WSW 19 26 10 14 1010.9 1008.4 0.0
18/11:00am 31.9 33.1 21.4 53 7.2 SW 17 30 9 16 1011.2 1008.7 0.0
18/10:30am 31.7 33.6 22.1 56 6.6 SW 15 24 8 13 1011.4 1009.0 0.0
18/10:00am 30.5 32.4 22.7 63 5.4 WSW 17 24 9 13 1011.8 1009.4 0.0
18/09:30am 29.3 31.5 21.8 64 5.1 W 13 24 7 13 1011.3 1008.9 0.0
18/09:00am 28.4 31.1 22.2 69 4.2 W 11 19 6 10 1011.3 1008.9 1.2
18/08:30am 27.3 29.0 22.3 74 3.4 NW 17 22 9 12 1010.9 1008.4 1.2
18/08:00am 25.8 27.7 22.1 80 2.5 NW 15 19 8 10 1010.9 1008.4 1.2
18/07:30am 24.3 27.3 22.0 87 1.6 NW 9 13 5 7 1010.8 1008.3 1.2
18/07:00am 23.9 27.1 21.6 87 1.5 N 7 7 4 4 1010.9 1008.4 1.2
18/06:30am 23.9 27.1 21.6 87 1.5 N 7 9 4 5 1010.7 1008.2 1.2
18/06:00am 24.0 26.7 21.3 85 1.8 NNW 9 11 5 6 1010.4 1007.9 1.2
18/05:30am 24.2 26.1 21.3 84 1.9 NW 13 17 7 9 1009.7 1007.2 1.2
18/05:00am 24.3 26.6 21.4 84 1.9 WNW 11 19 6 10 1009.5 1007.0 1.2
18/04:30am 24.6 29.2 21.7 84 1.9 CALM 0 7 0 4 1009.8 1007.3 1.2
18/04:00am 24.8 28.1 21.9 84 2.0 WNW 7 11 4 6 1009.0 1006.6 1.2
18/03:30am 24.8 26.5 21.7 83 2.1 NW 15 19 8 10 1008.6 1006.2 1.2
18/03:00am 24.5 26.9 21.6 84 1.9 NNW 11 15 6 8 1009.0 1006.6 1.0
18/02:30am 23.8 24.9 20.5 82 2.2 NW 15 20 8 11 1009.2 1006.8 1.0
18/02:00am 23.8 25.4 20.7 83 2.0 NNW 13 15 7 8 1009.9 1007.4 0.8
18/01:30am 23.5 24.7 19.8 80 2.4 NNE 13 20 7 11 1009.9 1007.4 0.4
18/01:00am 26.2 24.3 20.1 69 4.0 ESE 30 46 16 25 1011.2 1008.7 0.0
18/12:43am 27.9 27.4 19.9 61 5.3 E 22 52 12 28 1011.5 1009.1 0.0
18/12:30am 29.2 30.2 19.5 56 6.4 NNW 13 19 7 10 1009.9 1007.4 0.0
18/12:00am 29.4 30.3 20.0 57 6.3 N 15 20 8 11 1010.2 1007.7 0.0
 
Date/Time
CST
Temp
°C
App
Temp
°C
Dew
Point
°C
Rel
Hum
%
Delta-T
°C
Wind Press
QNH
hPa
Press
MSL
hPa
Rain since
9am
mm
Dir  Spd
km/h
Gust
km/h
Spd
kts
Gust
kts
17/11:30pm 28.2 30.4 21.2 65 4.7 NNW 11 19 6 10 1010.4 1007.9 0.0
17/11:00pm 28.2 29.8 20.7 63 5.0 NW 13 15 7 8 1009.7 1007.2 0.0
17/10:30pm 28.7 30.7 20.7 62 5.4 NNW 11 15 6 8 1009.8 1007.3 0.0
17/10:00pm 29.3 32.2 21.0 61 5.6 NNW 7 11 4 6 1009.9 1007.4 0.0
17/09:30pm 29.8 31.3 21.2 60 5.8 N 15 22 8 12 1010.1 1007.6 0.0
17/09:00pm 29.0 32.1 22.2 66 4.7 NW 9 11 5 6 1009.0 1006.6 0.0

Other Formats:

Comma delimited format used in spreadsheet applications
http://www.bom.gov.au/fwo/IDD60801/IDD60801.94231.axf

JavaScript Object Notation format (JSON) in row-major order
http://www.bom.gov.au/fwo/IDD60801/IDD60801.94231.json